Aviation Digital Data Service (ADDS)

Output produced by METARs form (2102 UTC 31 January 2023)
found at http://www.aviationweather.gov/metar/data/
 
KTLH 312053Z COR 16008KT 10SM BKN022 BKN033 25/19 A3012 RMK AO2 SLP198 T02500194 56023
KTLH 312026Z 19008KT 10SM BKN022 BKN031 25/19 A3012 RMK AO2 T02500194
KTLH 311908Z 3119/0118 VRB04KT P6SM BKN015 
     FM010200 VRB02KT 4SM BR OVC008 
     FM010300 00000KT 1/2SM FG OVC003 
     FM011500 23005KT P6SM SCT005 OVC010